Time;durP1;ratioP1;P1;durP2;ratioP2;P2;SDS_P1;SDS_P2;PMS_P1;PMS_P2;Temp;Humidity;BMP_temperature;BMP_pressure;BME280_temperature;BME280_humidity;BME280_pressure;Samples;Min_cycle;Max_cycle;Signal;HPM_P1;HPM_P2
2022/12/21 00:00:23;;;;;;;8.52;4.43;;;9.50;99.90;;;;;;10480600;28;20501;-65
2022/12/21 00:05:23;;;;;;;9.18;4.55;;;9.50;99.90;;;;;;10479812;28;20013;-65
2022/12/21 00:10:24;;;;;;;8.45;4.90;;;9.50;99.90;;;;;;10477114;28;20029;-65
2022/12/21 00:15:25;;;;;;;10.65;5.10;;;9.50;99.90;;;;;;10481638;28;20036;-65
2022/12/21 00:20:25;;;;;;;11.35;5.82;;;9.50;99.90;;;;;;10471271;28;20021;-65
2022/12/21 00:25:26;;;;;;;9.50;5.05;;;9.50;99.90;;;;;;10475509;28;20028;-65
2022/12/21 00:30:27;;;;;;;10.07;5.35;;;9.50;99.90;;;;;;10481107;28;20044;-65
2022/12/21 00:35:27;;;;;;;9.40;5.03;;;9.50;99.90;;;;;;10475595;28;20031;-65
2022/12/21 00:40:28;;;;;;;9.63;5.32;;;9.50;99.90;;;;;;10474586;28;20302;-65
2022/12/21 00:45:28;;;;;;;9.70;4.90;;;9.40;99.90;;;;;;10483032;28;20032;-66
2022/12/21 00:50:31;;;;;;;9.15;4.70;;;9.40;99.90;;;;;;10483797;28;20025;-65
2022/12/21 00:55:31;;;;;;;11.57;4.65;;;9.40;99.90;;;;;;10475735;28;20021;-64
2022/12/21 01:00:32;;;;;;;8.60;4.30;;;9.40;99.90;;;;;;10476598;28;20216;-64
2022/12/21 01:05:32;;;;;;;8.80;4.82;;;9.40;99.90;;;;;;10480329;28;20021;-65
2022/12/21 01:10:34;;;;;;;9.18;4.60;;;9.40;99.90;;;;;;10481017;28;20025;-67
2022/12/21 01:15:40;;;;;;;9.55;5.15;;;9.40;99.90;;;;;;10487762;28;20052;-65
2022/12/21 01:20:43;;;;;;;9.20;4.43;;;9.40;99.90;;;;;;10476872;28;20138;-64
2022/12/21 01:25:47;;;;;;;12.40;5.20;;;9.40;99.90;;;;;;10473908;28;20506;-64
2022/12/21 01:30:48;;;;;;;8.75;4.72;;;9.40;99.90;;;;;;10471962;28;20024;-64
2022/12/21 01:35:48;;;;;;;9.30;4.55;;;9.40;99.90;;;;;;10472398;28;20473;-64
2022/12/21 01:40:49;;;;;;;9.60;4.78;;;9.40;99.90;;;;;;10482131;28;20108;-64
2022/12/21 01:45:51;;;;;;;9.65;4.75;;;9.40;99.90;;;;;;10470738;28;20044;-65
2022/12/21 01:50:57;;;;;;;9.40;4.70;;;9.40;99.90;;;;;;10476114;28;20024;-65
2022/12/21 01:56:02;;;;;;;8.65;4.35;;;9.30;99.90;;;;;;10466867;28;20354;-64
2022/12/21 02:01:04;;;;;;;8.93;4.15;;;9.30;99.90;;;;;;10469969;28;20032;-65
2022/12/21 02:06:10;;;;;;;9.32;4.72;;;9.40;99.90;;;;;;10472636;28;20162;-65
2022/12/21 02:11:11;;;;;;;8.55;4.25;;;9.30;99.90;;;;;;10477611;28;20404;-65
2022/12/21 02:16:35;;;;;;;8.48;4.25;;;9.30;99.90;;;;;;10471624;28;20028;-64
2022/12/21 02:21:54;;;;;;;9.55;4.60;;;9.30;99.90;;;;;;10464947;28;20067;-65
2022/12/21 02:27:09;;;;;;;;;;;9.30;99.90;;;;;;10473858;28;20055;-65
2022/12/21 02:32:30;;;;;;;8.70;4.97;;;9.30;99.90;;;;;;10478950;28;19943;-65
2022/12/21 02:37:40;;;;;;;8.20;4.40;;;9.30;99.90;;;;;;10472675;28;20028;-65
2022/12/21 02:48:42;;;;;;;8.15;4.07;;;9.30;99.90;;;;;;10480716;28;20059;-66
2022/12/21 02:53:44;;;;;;;8.48;4.20;;;9.30;99.90;;;;;;10482848;28;20032;-65
2022/12/21 02:58:45;;;;;;;8.68;4.50;;;9.20;99.90;;;;;;10473024;28;20102;-65
2022/12/21 03:04:10;;;;;;;9.18;4.78;;;9.20;99.90;;;;;;10480127;28;20106;-66
2022/12/21 03:09:30;;;;;;;8.63;4.38;;;9.20;99.90;;;;;;10484255;28;20064;-65
2022/12/21 03:14:39;;;;;;;9.85;4.95;;;9.20;99.90;;;;;;10480697;28;20032;-65
2022/12/21 03:20:00;;;;;;;8.48;4.75;;;9.30;99.90;;;;;;10481232;28;20024;-65
2022/12/21 03:25:12;;;;;;;8.25;4.47;;;9.20;99.90;;;;;;10484580;28;20032;-65
2022/12/21 03:30:16;;;;;;;8.73;4.30;;;9.20;99.90;;;;;;10486068;28;20020;-65
2022/12/21 03:35:26;;;;;;;9.80;4.93;;;9.20;99.90;;;;;;10485055;28;20104;-64
2022/12/21 03:40:32;;;;;;;9.05;4.68;;;9.20;99.90;;;;;;10487816;28;20028;-65
2022/12/21 03:45:40;;;;;;;10.15;4.68;;;9.10;99.90;;;;;;10475992;28;20027;-64
2022/12/21 03:50:45;;;;;;;8.38;4.55;;;9.10;99.90;;;;;;10488529;28;20017;-64
2022/12/21 03:55:48;;;;;;;8.80;4.38;;;9.10;99.90;;;;;;10478084;28;20021;-66
2022/12/21 04:01:17;;;;;;;8.82;4.63;;;9.10;99.90;;;;;;10480536;28;20397;-65
2022/12/21 04:06:21;;;;;;;9.82;5.00;;;9.10;99.90;;;;;;10483238;28;20107;-65
2022/12/21 04:16:40;;;;;;;;;;;9.10;99.90;;;;;;10483756;28;20013;-65
2022/12/21 04:21:41;;;;;;;9.25;4.40;;;9.10;99.90;;;;;;10480431;28;19923;-66
2022/12/21 04:32:00;;;;;;;;;;;9.10;99.90;;;;;;10479860;28;20465;-66
2022/12/21 04:42:20;;;;;;;8.57;4.07;;;9.00;99.90;;;;;;10472292;28;20020;-66
2022/12/21 04:47:21;;;;;;;8.70;4.28;;;9.00;99.90;;;;;;10489502;28;20392;-66
2022/12/21 04:52:21;;;;;;;9.32;4.57;;;9.00;99.90;;;;;;10480564;28;20024;-64
2022/12/21 04:57:23;;;;;;;7.70;3.90;;;9.00;99.90;;;;;;10464936;28;20029;-64
2022/12/21 05:02:23;;;;;;;7.28;4.43;;;9.00;99.90;;;;;;10477526;28;20021;-65
2022/12/21 05:07:24;;;;;;;8.50;4.25;;;9.10;99.90;;;;;;10458860;28;20100;-64
2022/12/21 05:12:24;;;;;;;7.95;4.20;;;9.00;99.90;;;;;;10488012;28;20083;-64
2022/12/21 05:17:25;;;;;;;7.45;4.28;;;9.00;99.90;;;;;;10476426;28;20028;-65
2022/12/21 05:22:25;;;;;;;7.43;4.07;;;9.00;99.90;;;;;;10473018;28;20020;-64
2022/12/21 05:27:26;;;;;;;8.73;4.32;;;9.00;99.90;;;;;;10491306;28;20043;-65
2022/12/21 05:32:27;;;;;;;8.75;3.92;;;9.00;99.90;;;;;;10473645;28;20059;-65
2022/12/21 05:37:27;;;;;;;6.75;3.60;;;9.00;99.90;;;;;;10489635;28;20027;-65
2022/12/21 05:42:28;;;;;;;7.10;4.03;;;9.00;99.90;;;;;;10487816;28;20019;-65
2022/12/21 05:47:28;;;;;;;9.13;4.22;;;9.00;99.90;;;;;;10481136;28;20027;-65
2022/12/21 05:52:29;;;;;;;8.07;4.22;;;9.00;99.90;;;;;;10484442;28;20041;-65
2022/12/21 05:57:30;;;;;;;7.30;3.70;;;9.00;99.90;;;;;;10471266;28;20506;-63
2022/12/21 06:02:31;;;;;;;7.07;3.80;;;9.40;99.90;;;;;;10464735;28;20017;-67
2022/12/21 06:07:32;;;;;;;8.77;4.43;;;8.90;99.90;;;;;;10477703;28;20492;-66
2022/12/21 06:12:33;;;;;;;8.45;3.92;;;8.90;99.90;;;;;;10483840;28;20035;-66
2022/12/21 06:17:33;;;;;;;7.70;4.22;;;8.90;99.90;;;;;;10478499;28;20024;-66
2022/12/21 06:22:34;;;;;;;8.23;3.88;;;8.90;99.90;;;;;;10471005;28;20528;-66
2022/12/21 06:27:35;;;;;;;7.32;4.22;;;8.90;99.90;;;;;;10468624;28;20444;-66
2022/12/21 06:32:36;;;;;;;7.57;3.63;;;8.90;99.90;;;;;;10462250;28;20119;-66
2022/12/21 06:37:37;;;;;;;7.47;4.00;;;9.00;99.90;;;;;;10458227;28;20079;-63
2022/12/21 06:42:37;;;;;;;6.40;3.45;;;8.90;99.90;;;;;;10478364;28;20029;-65
2022/12/21 06:47:38;;;;;;;9.15;3.88;;;8.90;99.90;;;;;;10480164;28;20020;-64
2022/12/21 06:52:39;;;;;;;8.38;3.90;;;8.90;99.90;;;;;;10484723;28;20021;-65
2022/12/21 06:57:39;;;;;;;6.88;3.50;;;8.90;99.90;;;;;;10475051;28;20021;-63
2022/12/21 07:02:41;;;;;;;7.53;3.80;;;9.00;99.90;;;;;;10473209;28;20037;-65
2022/12/21 07:07:42;;;;;;;7.72;3.55;;;8.90;99.90;;;;;;10482143;28;20025;-65
2022/12/21 07:12:42;;;;;;;6.35;3.50;;;8.90;99.90;;;;;;10465465;28;20032;-65
2022/12/21 07:17:43;;;;;;;8.20;4.38;;;8.90;99.90;;;;;;10480471;28;20618;-64
2022/12/21 07:22:44;;;;;;;10.73;4.63;;;8.90;99.90;;;;;;10470657;28;20484;-66
2022/12/21 07:27:45;;;;;;;9.15;4.72;;;8.90;99.90;;;;;;10485805;28;20275;-66
2022/12/21 07:32:45;;;;;;;9.45;4.22;;;8.80;99.90;;;;;;10481895;28;20024;-66
2022/12/21 07:37:46;;;;;;;8.52;4.20;;;8.80;99.90;;;;;;10485949;28;20366;-65
2022/12/21 07:42:47;;;;;;;9.77;4.88;;;8.90;99.90;;;;;;10489165;28;20506;-65
2022/12/21 07:47:48;;;;;;;9.77;4.43;;;8.80;99.90;;;;;;10482716;28;20025;-65
2022/12/21 07:52:48;;;;;;;11.35;4.65;;;8.90;99.90;;;;;;10475714;28;20329;-66
2022/12/21 07:57:49;;;;;;;10.18;4.13;;;8.80;99.90;;;;;;10487429;28;20029;-67
2022/12/21 08:02:53;;;;;;;11.15;4.15;;;8.80;99.90;;;;;;10475912;28;20040;-68
2022/12/21 08:07:54;;;;;;;9.15;4.22;;;8.90;99.90;;;;;;10466919;28;20063;-67
2022/12/21 08:12:54;;;;;;;9.43;4.55;;;8.80;99.90;;;;;;10486975;28;20070;-67
2022/12/21 08:17:55;;;;;;;9.27;4.70;;;8.80;99.90;;;;;;10483662;28;20059;-67
2022/12/21 08:22:55;;;;;;;9.88;4.72;;;8.80;99.90;;;;;;10480437;28;20086;-65
2022/12/21 08:27:56;;;;;;;10.00;4.32;;;8.80;99.90;;;;;;10485081;28;20024;-66
2022/12/21 08:32:56;;;;;;;10.25;4.55;;;8.80;99.90;;;;;;10488005;28;20032;-67
2022/12/21 08:37:57;;;;;;;8.50;4.57;;;8.80;99.90;;;;;;10479630;28;20526;-66
2022/12/21 08:42:58;;;;;;;9.55;4.40;;;8.80;99.90;;;;;;10490491;28;20029;-66
2022/12/21 08:47:58;;;;;;;10.23;4.47;;;8.90;99.90;;;;;;10480930;28;20020;-66
2022/12/21 08:52:59;;;;;;;10.02;4.53;;;8.90;99.90;;;;;;10475904;28;20028;-66
2022/12/21 08:57:59;;;;;;;9.98;4.53;;;8.90;99.90;;;;;;10475175;28;20033;-66
2022/12/21 09:03:00;;;;;;;10.43;4.38;;;8.90;99.90;;;;;;10478746;28;20036;-66
2022/12/21 09:08:01;;;;;;;10.73;4.85;;;8.80;99.90;;;;;;10478152;28;20408;-66
2022/12/21 09:13:02;;;;;;;10.60;5.45;;;8.90;99.90;;;;;;10478054;28;20689;-66
2022/12/21 09:18:03;;;;;;;8.05;4.05;;;8.90;99.90;;;;;;10475127;28;20156;-66
2022/12/21 09:23:03;;;;;;;11.27;5.25;;;8.90;99.90;;;;;;10476369;28;20062;-64
2022/12/21 09:28:04;;;;;;;17.02;7.32;;;8.90;99.90;;;;;;10483023;28;20094;-61
2022/12/21 09:33:05;;;;;;;31.23;10.60;;;9.00;99.90;;;;;;10491688;28;20048;-66
2022/12/21 09:38:06;;;;;;;24.17;8.85;;;9.00;99.90;;;;;;10478344;28;20099;-66
2022/12/21 09:43:36;;;;;;;25.67;8.70;;;9.00;99.90;;;;;;10473955;28;20051;-66
2022/12/21 09:48:40;;;;;;;20.15;8.52;;;9.00;99.90;;;;;;10482367;28;20017;-66
2022/12/21 09:53:49;;;;;;;21.65;7.95;;;9.00;99.90;;;;;;10484016;28;20028;-66
2022/12/21 09:58:51;;;;;;;18.27;7.45;;;9.00;99.90;;;;;;10482272;28;20028;-66
2022/12/21 10:04:10;;;;;;;19.10;7.68;;;9.00;99.90;;;;;;10485437;28;20476;-66
2022/12/21 10:09:17;;;;;;;15.43;7.22;;;9.00;99.90;;;;;;10485827;28;20028;-66
2022/12/21 10:14:55;;;;;;;17.40;6.78;;;9.00;99.90;;;;;;10482342;28;20025;-66
2022/12/21 10:20:09;;;;;;;20.80;7.90;;;9.10;99.90;;;;;;10485903;28;20048;-67
2022/12/21 10:25:41;;;;;;;29.50;10.45;;;9.10;99.90;;;;;;10485189;28;20439;-65
2022/12/21 10:30:50;;;;;;;36.92;12.52;;;9.10;99.90;;;;;;10478824;28;20031;-65
2022/12/21 10:35:54;;;;;;;37.53;13.37;;;9.00;99.90;;;;;;10481646;28;20040;-65
2022/12/21 10:40:55;;;;;;;30.30;11.77;;;8.90;99.90;;;;;;10483738;28;20511;-66
2022/12/21 10:45:56;;;;;;;40.85;12.82;;;8.90;99.90;;;;;;10478599;28;20153;-65
2022/12/21 10:51:14;;;;;;;35.42;12.63;;;8.80;99.90;;;;;;10483099;28;20037;-66
2022/12/21 10:56:15;;;;;;;39.78;13.00;;;8.70;99.90;;;;;;10476199;28;20013;-65
2022/12/21 11:01:22;;;;;;;44.03;12.77;;;8.70;99.90;;;;;;10479074;28;20021;-65
2022/12/21 11:06:23;;;;;;;39.83;12.63;;;8.70;99.90;;;;;;10479023;28;20111;-65
2022/12/21 11:11:37;;;;;;;41.58;14.07;;;8.70;99.90;;;;;;10471183;28;20037;-65
2022/12/21 11:16:38;;;;;;;43.38;13.80;;;8.70;99.90;;;;;;10471194;28;20059;-65
2022/12/21 11:21:45;;;;;;;33.58;13.02;;;8.70;99.90;;;;;;10466229;28;20544;-64
2022/12/21 11:26:49;;;;;;;40.13;13.52;;;8.80;99.90;;;;;;10463533;28;20028;-64
2022/12/21 11:31:52;;;;;;;29.65;12.38;;;8.80;99.90;;;;;;10475638;28;20396;-66
2022/12/21 11:37:00;;;;;;;28.33;11.73;;;8.80;99.90;;;;;;10486609;28;20024;-64
2022/12/21 11:42:00;;;;;;;33.38;12.35;;;8.80;99.90;;;;;;10476461;28;20033;-65
2022/12/21 11:47:22;;;;;;;30.65;11.80;;;8.80;99.90;;;;;;10492382;28;20550;-65
2022/12/21 11:52:55;;;;;;;26.60;10.25;;;8.80;99.90;;;;;;10479586;28;20123;-64
2022/12/21 11:58:21;;;;;;;26.85;9.75;;;8.80;99.90;;;;;;10480479;28;20043;-65
2022/12/21 12:03:52;;;;;;;19.33;8.38;;;8.90;99.90;;;;;;10487521;28;20016;-65
2022/12/21 12:09:04;;;;;;;26.05;8.90;;;9.00;99.90;;;;;;10488028;28;20115;-65
2022/12/21 12:14:05;;;;;;;22.98;8.50;;;9.10;99.90;;;;;;10488128;28;20044;-65
2022/12/21 12:19:30;;;;;;;23.35;8.90;;;9.10;99.90;;;;;;10481919;28;20024;-66
2022/12/21 12:25:14;;;;;;;26.40;9.82;;;9.10;99.90;;;;;;10482096;28;20514;-67
2022/12/21 12:30:18;;;;;;;23.40;9.57;;;9.20;99.90;;;;;;10483545;28;20021;-64
2022/12/21 12:35:30;;;;;;;23.23;9.43;;;9.20;99.90;;;;;;10486602;28;20020;-65
2022/12/21 12:41:08;;;;;;;24.08;9.05;;;9.30;99.90;;;;;;10484743;28;20574;-63
2022/12/21 12:46:21;;;;;;;21.43;8.20;;;9.30;99.90;;;;;;10481461;28;20020;-66
2022/12/21 12:51:52;;;;;;;23.20;8.23;;;9.30;99.90;;;;;;10483315;28;20056;-64
2022/12/21 12:57:12;;;;;;;22.80;8.75;;;9.30;99.90;;;;;;10483602;28;20029;-66
2022/12/21 13:02:47;;;;;;;22.40;9.00;;;9.30;99.90;;;;;;10481423;28;20029;-68
2022/12/21 13:07:51;;;;;;;19.27;7.90;;;9.30;99.90;;;;;;10468800;28;20075;-67
2022/12/21 13:13:14;;;;;;;20.48;8.60;;;9.30;99.90;;;;;;10483911;28;20040;-65
2022/12/21 13:18:49;;;;;;;23.67;8.90;;;9.30;99.90;;;;;;10479471;28;20017;-66
2022/12/21 13:24:00;;;;;;;18.95;8.43;;;9.30;99.90;;;;;;10473072;28;20178;-66
2022/12/21 13:29:05;;;;;;;17.08;7.43;;;9.30;99.90;;;;;;10481636;28;20111;-66
2022/12/21 13:34:31;;;;;;;17.20;7.60;;;9.30;99.90;;;;;;10469153;28;20408;-67
2022/12/21 13:39:37;;;;;;;18.35;8.15;;;9.30;99.90;;;;;;10486355;28;20036;-67
2022/12/21 13:44:48;;;;;;;18.52;7.85;;;9.30;99.90;;;;;;10483104;28;20476;-67
2022/12/21 13:50:14;;;;;;;21.73;8.20;;;9.30;99.90;;;;;;10483080;28;20017;-67
2022/12/21 13:55:52;;;;;;;15.43;7.43;;;9.30;99.90;;;;;;10479643;28;20075;-67
2022/12/21 14:01:17;;;;;;;15.97;7.20;;;9.40;99.90;;;;;;10478497;28;20051;-66
2022/12/21 14:07:04;;;;;;;19.38;8.10;;;9.30;99.90;;;;;;10481226;28;20055;-65
2022/12/21 14:12:50;;;;;;;20.77;9.05;;;9.40;99.90;;;;;;10478354;28;20485;-64
2022/12/21 14:17:57;;;;;;;23.13;10.57;;;9.50;99.90;;;;;;10341667;28;20402;-67
2022/12/21 14:23:00;;;;;;;26.30;11.52;;;9.50;99.90;;;;;;10459859;28;20048;-67
2022/12/21 14:28:21;;;;;;;30.23;12.38;;;9.30;99.90;;;;;;10481582;28;20029;-67
2022/12/21 14:33:27;;;;;;;30.80;12.43;;;9.10;99.90;;;;;;10482297;28;20060;-67
2022/12/21 14:38:28;;;;;;;28.63;11.32;;;9.00;99.90;;;;;;10485658;28;20379;-67
2022/12/21 14:43:29;;;;;;;23.92;11.13;;;8.90;99.90;;;;;;10479673;28;20055;-66
2022/12/21 14:48:29;;;;;;;24.75;11.88;;;8.70;99.90;;;;;;10485312;28;20054;-64
2022/12/21 14:53:33;;;;;;;28.52;12.65;;;8.80;99.90;;;;;;10485933;28;20153;-68
2022/12/21 14:58:36;;;;;;;32.28;13.77;;;8.70;99.90;;;;;;10491347;28;20052;-65
2022/12/21 15:03:41;;;;;;;27.73;13.00;;;8.70;99.90;;;;;;10487484;28;20139;-62
2022/12/21 15:08:45;;;;;;;33.38;12.90;;;8.70;99.90;;;;;;10486094;28;20103;-62
2022/12/21 15:13:52;;;;;;;28.58;12.15;;;8.60;99.90;;;;;;10480750;28;20032;-64
2022/12/21 15:18:53;;;;;;;25.95;12.35;;;8.60;99.90;;;;;;10492261;28;20021;-64
2022/12/21 15:24:21;;;;;;;24.65;11.80;;;8.70;99.90;;;;;;10477490;28;20391;-64
2022/12/21 15:29:40;;;;;;;32.00;11.68;;;8.80;99.90;;;;;;10489602;28;20039;-65
2022/12/21 15:34:46;;;;;;;25.73;12.20;;;8.90;99.90;;;;;;10493671;28;20605;-65
2022/12/21 15:39:48;;;;;;;27.17;11.75;;;8.90;99.90;;;;;;10500131;28;20180;-65
2022/12/21 15:44:59;;;;;;;20.52;10.18;;;9.00;99.90;;;;;;10501139;28;20475;-65
2022/12/21 15:50:30;;;;;;;23.65;11.45;;;9.10;99.90;;;;;;10482583;28;20028;-64
2022/12/21 15:55:34;;;;;;;19.48;9.75;;;9.10;99.90;;;;;;10470889;28;20566;-64
2022/12/21 16:00:51;;;;;;;26.15;10.73;;;9.10;99.90;;;;;;10488489;28;20008;-65
2022/12/21 16:06:10;;;;;;;21.60;9.25;;;9.10;99.90;;;;;;10474417;28;20551;-67
2022/12/21 16:11:24;;;;;;;18.33;9.73;;;9.10;99.90;;;;;;10480711;28;20040;-65
2022/12/21 16:16:25;;;;;;;20.38;10.10;;;9.10;99.90;;;;;;10477482;28;20029;-65
2022/12/21 16:21:32;;;;;;;20.95;9.57;;;9.10;99.90;;;;;;10472842;28;20025;-66
2022/12/21 16:26:35;;;;;;;18.13;9.82;;;9.40;99.90;;;;;;10466959;28;20495;-65
2022/12/21 16:31:35;;;;;;;16.00;8.77;;;9.10;99.90;;;;;;10479762;28;20376;-65
2022/12/21 16:36:36;;;;;;;20.05;9.95;;;9.10;99.90;;;;;;10485059;28;20035;-68
2022/12/21 16:41:37;;;;;;;21.40;9.75;;;9.10;99.90;;;;;;10489285;28;20056;-65
2022/12/21 16:46:53;;;;;;;20.90;10.77;;;9.20;99.90;;;;;;10487290;28;20024;-65
2022/12/21 16:51:55;;;;;;;26.17;10.82;;;8.90;99.90;;;;;;10471440;28;20046;-66
2022/12/21 16:56:59;;;;;;;17.00;9.02;;;9.20;99.90;;;;;;10486865;28;20029;-64
2022/12/21 17:02:08;;;;;;;23.25;9.88;;;9.20;99.90;;;;;;10481897;28;20024;-64
2022/12/21 17:07:18;;;;;;;18.77;9.60;;;9.20;99.90;;;;;;10485131;28;20424;-64
2022/12/21 17:12:34;;;;;;;20.52;9.75;;;9.20;99.90;;;;;;10481342;28;20119;-63
2022/12/21 17:17:43;;;;;;;19.75;9.43;;;9.20;99.90;;;;;;10478459;28;20107;-64
2022/12/21 17:22:55;;;;;;;18.98;8.93;;;9.20;99.90;;;;;;10477900;28;20470;-64
2022/12/21 17:27:58;;;;;;;16.90;8.43;;;9.20;99.90;;;;;;10478301;28;20119;-65
2022/12/21 17:33:04;;;;;;;18.25;9.13;;;9.20;99.90;;;;;;10467867;28;20377;-65
2022/12/21 17:38:08;;;;;;;21.77;9.45;;;9.20;99.90;;;;;;10470078;28;20531;-65
2022/12/21 17:43:09;;;;;;;19.25;9.48;;;9.20;99.90;;;;;;10476399;28;20059;-66
2022/12/21 17:48:14;;;;;;;22.08;9.90;;;9.20;99.90;;;;;;10479867;28;20032;-70
2022/12/21 17:53:22;;;;;;;21.80;9.23;;;9.20;99.90;;;;;;10479409;28;20066;-66
2022/12/21 17:58:22;;;;;;;20.15;9.45;;;9.20;99.90;;;;;;10476608;28;20044;-65
2022/12/21 18:03:30;;;;;;;18.55;8.30;;;9.20;99.90;;;;;;10475836;28;20127;-65
2022/12/21 18:08:30;;;;;;;18.75;8.95;;;9.20;99.90;;;;;;10482955;28;20024;-66
2022/12/21 18:13:31;;;;;;;18.33;8.40;;;9.20;99.90;;;;;;10477678;28;20046;-65
2022/12/21 18:18:33;;;;;;;17.27;7.85;;;9.20;99.90;;;;;;10475259;28;20016;-65
2022/12/21 18:23:37;;;;;;;18.20;8.70;;;9.20;99.90;;;;;;10482257;28;20035;-64
2022/12/21 18:28:38;;;;;;;17.35;8.77;;;9.10;99.90;;;;;;10477472;28;20015;-64
2022/12/21 18:34:02;;;;;;;16.25;8.35;;;9.10;99.90;;;;;;10471059;28;20081;-65
2022/12/21 18:39:05;;;;;;;17.00;8.20;;;9.10;99.90;;;;;;10485516;28;20229;-64
2022/12/21 18:44:05;;;;;;;13.43;7.60;;;9.10;99.90;;;;;;10487020;28;20039;-65
2022/12/21 18:49:10;;;;;;;15.68;7.70;;;9.10;99.90;;;;;;10475006;28;20023;-64
2022/12/21 18:54:17;;;;;;;14.07;7.35;;;9.10;99.90;;;;;;10482128;28;20124;-64
2022/12/21 18:59:18;;;;;;;13.32;7.10;;;9.10;99.90;;;;;;10471230;28;20021;-64
2022/12/21 19:04:25;;;;;;;15.18;7.15;;;9.10;99.90;;;;;;10474951;28;20440;-65
2022/12/21 19:09:26;;;;;;;14.40;7.53;;;9.10;99.90;;;;;;10476509;28;20074;-64
2022/12/21 19:14:29;;;;;;;13.45;7.18;;;9.10;99.90;;;;;;10461533;28;20415;-65
2022/12/21 19:19:30;;;;;;;15.15;7.20;;;9.80;99.90;;;;;;10475612;28;20021;-64
2022/12/21 19:24:33;;;;;;;13.40;7.38;;;9.10;99.90;;;;;;10470589;28;20052;-62
2022/12/21 19:29:34;;;;;;;12.98;7.38;;;9.30;99.90;;;;;;10473720;28;20041;-64
2022/12/21 19:34:35;;;;;;;15.50;7.28;;;9.40;99.90;;;;;;10482992;28;20162;-62
2022/12/21 19:39:39;;;;;;;12.70;6.53;;;9.30;99.90;;;;;;10485954;28;20016;-63
2022/12/21 19:44:40;;;;;;;14.25;6.97;;;9.30;99.90;;;;;;10466846;28;20097;-67
2022/12/21 19:49:41;;;;;;;13.65;6.68;;;9.30;99.90;;;;;;10473060;28;20070;-63
2022/12/21 19:54:42;;;;;;;13.30;7.28;;;9.30;99.90;;;;;;10471521;28;20137;-68
2022/12/21 19:59:43;;;;;;;13.88;7.18;;;9.30;99.90;;;;;;10469646;28;20028;-63
2022/12/21 20:04:44;;;;;;;14.15;6.68;;;9.30;99.90;;;;;;10471098;28;20029;-63
2022/12/21 20:09:44;;;;;;;14.07;7.60;;;9.20;99.90;;;;;;10475827;28;20025;-62
2022/12/21 20:14:48;;;;;;;13.18;6.80;;;9.50;99.90;;;;;;10476736;28;20781;-63
2022/12/21 20:19:48;;;;;;;15.38;6.90;;;9.20;99.90;;;;;;10481916;28;20055;-62
2022/12/21 20:24:49;;;;;;;12.80;6.80;;;9.20;99.90;;;;;;10479893;28;20549;-63
2022/12/21 20:29:50;;;;;;;13.02;6.57;;;9.20;99.90;;;;;;10478313;28;20024;-61
2022/12/21 20:34:51;;;;;;;13.23;6.55;;;9.20;99.90;;;;;;10466377;28;20175;-70
2022/12/21 20:39:52;;;;;;;12.32;6.78;;;9.20;99.90;;;;;;10464882;28;20035;-62
2022/12/21 20:44:55;;;;;;;11.40;6.65;;;9.20;99.90;;;;;;10471775;28;20050;-66
2022/12/21 20:49:57;;;;;;;13.02;6.63;;;9.20;99.90;;;;;;10472919;28;20496;-62
2022/12/21 20:56:23;;;;;;;12.15;6.50;;;9.20;99.90;;;;;;10475821;28;20072;-61
2022/12/21 21:00:24;;;;;;;13.48;7.00;;;9.20;99.90;;;;;;10459837;28;20051;-61
2022/12/21 21:05:25;;;;;;;12.27;7.38;;;9.20;99.90;;;;;;10470230;28;20028;-65
2022/12/21 21:10:26;;;;;;;11.93;7.03;;;10.00;99.90;;;;;;10473156;28;20116;-62
2022/12/21 21:15:27;;;;;;;12.35;6.95;;;9.20;99.90;;;;;;10480506;28;20027;-61
2022/12/21 21:25:56;;;;;;;13.07;6.60;;;9.20;99.90;;;;;;10464663;28;20040;-62
2022/12/21 21:30:59;;;;;;;13.30;6.85;;;9.20;99.90;;;;;;10474640;28;20025;-63
2022/12/21 21:36:01;;;;;;;12.40;6.50;;;9.20;99.90;;;;;;10462292;28;20028;-62
2022/12/21 21:46:21;;;;;;;11.95;6.78;;;9.20;99.90;;;;;;10472291;28;20099;-63
2022/12/21 21:51:21;;;;;;;10.40;5.68;;;9.20;99.90;;;;;;10478160;28;20024;-62
2022/12/21 21:56:22;;;;;;;13.43;6.93;;;9.20;99.90;;;;;;10477681;28;20701;-62
2022/12/21 22:01:24;;;;;;;12.80;6.65;;;9.20;99.90;;;;;;10469564;28;20028;-63
2022/12/21 22:06:24;;;;;;;11.60;6.30;;;9.20;99.90;;;;;;10475863;28;20031;-63
2022/12/21 22:11:26;;;;;;;10.40;5.88;;;9.20;99.90;;;;;;10471308;28;20526;-63
2022/12/21 22:16:26;;;;;;;11.88;6.88;;;9.20;99.90;;;;;;10485405;28;20432;-62
2022/12/21 22:32:15;;;;;;;12.88;6.45;;;9.20;99.90;;;;;;10473594;28;20430;-62
2022/12/21 22:42:35;;;;;;;10.68;6.13;;;9.20;99.90;;;;;;10470403;28;20107;-63
2022/12/21 22:47:36;;;;;;;10.45;6.22;;;9.20;99.90;;;;;;10475112;28;20028;-63
2022/12/21 22:52:39;;;;;;;12.50;6.20;;;9.20;99.90;;;;;;10475767;28;20029;-63
2022/12/21 22:57:39;;;;;;;11.63;6.65;;;9.20;99.90;;;;;;10482728;28;20048;-62
2022/12/21 23:02:40;;;;;;;10.93;6.30;;;9.20;99.90;;;;;;10496347;28;20315;-62
2022/12/21 23:07:41;;;;;;;11.60;6.40;;;9.20;99.90;;;;;;10484722;28;20028;-63
2022/12/21 23:28:50;;;;;;;9.30;5.97;;;9.30;99.90;;;;;;10490791;28;20358;-62
2022/12/21 23:44:40;;;;;;;13.80;6.72;;;9.30;99.90;;;;;;10472211;28;20101;-62
